sensor_id;sensor_type;location;lat;lon;timestamp;pressure;altitude;pressure_sealevel;temperature;humidity
22649;BME280;11491;41.942;24.220;2023-04-01T00:01:05;89150.94;;;9.22;58.23
22649;BME280;11491;41.942;24.220;2023-04-01T00:03:33;89154.56;;;9.34;57.73
22649;BME280;11491;41.942;24.220;2023-04-01T00:06:01;89154.69;;;9.41;57.11
22649;BME280;11491;41.942;24.220;2023-04-01T00:08:28;89145.72;;;9.49;56.83
22649;BME280;11491;41.942;24.220;2023-04-01T00:10:55;89151.16;;;9.56;56.17
22649;BME280;11491;41.942;24.220;2023-04-01T00:13:25;89139.06;;;9.62;56.08
22649;BME280;11491;41.942;24.220;2023-04-01T00:15:52;89149.03;;;9.65;56.00
22649;BME280;11491;41.942;24.220;2023-04-01T00:18:19;89152.84;;;9.64;55.59
22649;BME280;11491;41.942;24.220;2023-04-01T00:20:47;89144.44;;;9.66;55.91
22649;BME280;11491;41.942;24.220;2023-04-01T00:23:14;89143.66;;;9.62;55.79
22649;BME280;11491;41.942;24.220;2023-04-01T00:25:41;89134.63;;;9.70;56.05
22649;BME280;11491;41.942;24.220;2023-04-01T00:28:08;89137.63;;;9.68;56.07
22649;BME280;11491;41.942;24.220;2023-04-01T00:30:37;89130.75;;;9.67;56.21
22649;BME280;11491;41.942;24.220;2023-04-01T00:33:04;89125.53;;;9.75;55.45
22649;BME280;11491;41.942;24.220;2023-04-01T00:35:31;89127.06;;;9.76;55.52
22649;BME280;11491;41.942;24.220;2023-04-01T00:37:58;89129.94;;;9.63;55.65
22649;BME280;11491;41.942;24.220;2023-04-01T00:40:27;89140.19;;;9.61;55.98
22649;BME280;11491;41.942;24.220;2023-04-01T00:42:55;89133.59;;;9.55;55.59
22649;BME280;11491;41.942;24.220;2023-04-01T00:45:26;89147.25;;;9.50;55.98
22649;BME280;11491;41.942;24.220;2023-04-01T00:47:55;89141.19;;;9.53;55.69
22649;BME280;11491;41.942;24.220;2023-04-01T00:50:24;89149.44;;;9.44;56.00
22649;BME280;11491;41.942;24.220;2023-04-01T00:52:52;89138.75;;;9.44;56.38
22649;BME280;11491;41.942;24.220;2023-04-01T00:55:21;89129.75;;;9.53;55.18
22649;BME280;11491;41.942;24.220;2023-04-01T00:57:50;89133.84;;;9.69;54.79
22649;BME280;11491;41.942;24.220;2023-04-01T01:00:18;89124.00;;;9.74;53.85
22649;BME280;11491;41.942;24.220;2023-04-01T01:02:45;89128.75;;;9.84;53.28
22649;BME280;11491;41.942;24.220;2023-04-01T01:05:16;89126.91;;;9.88;53.40
22649;BME280;11491;41.942;24.220;2023-04-01T01:07:49;89128.16;;;9.94;53.07
22649;BME280;11491;41.942;24.220;2023-04-01T01:10:24;89114.38;;;9.92;52.72
22649;BME280;11491;41.942;24.220;2023-04-01T01:12:59;89129.38;;;10.00;52.80
22649;BME280;11491;41.942;24.220;2023-04-01T01:15:32;89120.66;;;10.03;52.70
22649;BME280;11491;41.942;24.220;2023-04-01T01:18:06;89113.16;;;10.12;52.16
22649;BME280;11491;41.942;24.220;2023-04-01T01:21:05;89106.94;;;10.05;52.35
22649;BME280;11491;41.942;24.220;2023-04-01T01:24:03;89098.53;;;10.03;52.68
22649;BME280;11491;41.942;24.220;2023-04-01T01:26:52;89088.59;;;10.03;52.79
22649;BME280;11491;41.942;24.220;2023-04-01T01:32:25;89081.84;;;10.09;52.86
22649;BME280;11491;41.942;24.220;2023-04-01T01:35:10;89078.78;;;10.11;52.99
22649;BME280;11491;41.942;24.220;2023-04-01T01:37:40;89079.50;;;10.08;52.75
22649;BME280;11491;41.942;24.220;2023-04-01T01:40:10;89078.34;;;10.05;52.98
22649;BME280;11491;41.942;24.220;2023-04-01T01:42:42;89077.91;;;10.03;53.52
22649;BME280;11491;41.942;24.220;2023-04-01T01:45:12;89069.72;;;9.89;53.30
22649;BME280;11491;41.942;24.220;2023-04-01T01:47:43;89069.31;;;9.87;53.39
22649;BME280;11491;41.942;24.220;2023-04-01T01:50:13;89069.34;;;9.90;53.58
22649;BME280;11491;41.942;24.220;2023-04-01T01:52:40;89073.19;;;9.93;53.55
22649;BME280;11491;41.942;24.220;2023-04-01T01:55:24;89069.75;;;9.92;53.72
22649;BME280;11491;41.942;24.220;2023-04-01T01:57:52;89069.19;;;9.80;52.18
22649;BME280;11491;41.942;24.220;2023-04-01T02:00:19;89063.25;;;9.90;51.95
22649;BME280;11491;41.942;24.220;2023-04-01T02:02:48;89062.03;;;9.84;52.20
22649;BME280;11491;41.942;24.220;2023-04-01T02:05:20;89041.06;;;9.86;51.40
22649;BME280;11491;41.942;24.220;2023-04-01T02:07:51;89054.63;;;10.00;51.11
22649;BME280;11491;41.942;24.220;2023-04-01T02:10:22;89056.56;;;10.03;50.82
22649;BME280;11491;41.942;24.220;2023-04-01T02:12:51;89053.19;;;10.06;51.23
22649;BME280;11491;41.942;24.220;2023-04-01T02:15:21;89050.41;;;9.99;51.44
22649;BME280;11491;41.942;24.220;2023-04-01T02:17:49;89052.66;;;9.97;51.44
22649;BME280;11491;41.942;24.220;2023-04-01T02:20:20;89049.16;;;9.93;51.60
22649;BME280;11491;41.942;24.220;2023-04-01T02:22:50;89045.84;;;10.00;52.17
22649;BME280;11491;41.942;24.220;2023-04-01T02:25:20;89046.59;;;10.00;51.59
22649;BME280;11491;41.942;24.220;2023-04-01T02:27:48;89048.75;;;9.91;52.10
22649;BME280;11491;41.942;24.220;2023-04-01T02:30:16;89048.75;;;9.91;52.18
22649;BME280;11491;41.942;24.220;2023-04-01T02:32:44;89049.97;;;9.70;52.39
22649;BME280;11491;41.942;24.220;2023-04-01T02:35:14;89056.97;;;9.79;52.32
22649;BME280;11491;41.942;24.220;2023-04-01T02:37:44;89061.97;;;9.57;53.29
22649;BME280;11491;41.942;24.220;2023-04-01T02:40:14;89074.38;;;9.46;53.53
22649;BME280;11491;41.942;24.220;2023-04-01T02:42:42;89070.22;;;9.25;54.42
22649;BME280;11491;41.942;24.220;2023-04-01T02:45:10;89062.94;;;9.22;54.56
22649;BME280;11491;41.942;24.220;2023-04-01T02:47:37;89052.38;;;9.30;54.35
22649;BME280;11491;41.942;24.220;2023-04-01T02:50:04;89038.75;;;9.35;54.06
22649;BME280;11491;41.942;24.220;2023-04-01T02:52:32;89040.16;;;9.28;54.45
22649;BME280;11491;41.942;24.220;2023-04-01T02:55:00;89033.88;;;9.17;54.94
22649;BME280;11491;41.942;24.220;2023-04-01T02:57:26;89018.69;;;9.21;54.82
22649;BME280;11491;41.942;24.220;2023-04-01T02:59:53;89020.69;;;9.24;54.81
22649;BME280;11491;41.942;24.220;2023-04-01T03:02:20;89016.69;;;9.15;55.45
22649;BME280;11491;41.942;24.220;2023-04-01T03:04:47;89020.69;;;9.24;55.40
22649;BME280;11491;41.942;24.220;2023-04-01T03:07:13;89015.66;;;9.19;56.08
22649;BME280;11491;41.942;24.220;2023-04-01T03:09:40;89005.19;;;9.11;56.56
22649;BME280;11491;41.942;24.220;2023-04-01T03:12:08;89010.88;;;9.09;56.79
22649;BME280;11491;41.942;24.220;2023-04-01T03:14:35;89010.69;;;8.75;58.08
22649;BME280;11491;41.942;24.220;2023-04-01T03:17:02;89016.66;;;8.49;58.81
22649;BME280;11491;41.942;24.220;2023-04-01T03:19:29;89007.34;;;8.39;59.71
22649;BME280;11491;41.942;24.220;2023-04-01T03:21:55;89009.91;;;8.36;59.97
22649;BME280;11491;41.942;24.220;2023-04-01T03:24:22;89015.81;;;8.26;60.49
22649;BME280;11491;41.942;24.220;2023-04-01T03:26:49;88992.16;;;8.05;60.59
22649;BME280;11491;41.942;24.220;2023-04-01T03:29:17;89000.44;;;7.99;60.63
22649;BME280;11491;41.942;24.220;2023-04-01T03:31:44;89002.72;;;7.82;61.43
22649;BME280;11491;41.942;24.220;2023-04-01T03:34:10;88997.78;;;7.80;61.95
22649;BME280;11491;41.942;24.220;2023-04-01T03:36:37;88988.94;;;7.76;61.88
22649;BME280;11491;41.942;24.220;2023-04-01T03:39:04;89001.84;;;7.93;61.03
22649;BME280;11491;41.942;24.220;2023-04-01T03:41:32;88997.63;;;7.73;62.07
22649;BME280;11491;41.942;24.220;2023-04-01T03:43:59;89004.63;;;7.46;62.62
22649;BME280;11491;41.942;24.220;2023-04-01T03:46:27;88995.44;;;7.43;63.73
22649;BME280;11491;41.942;24.220;2023-04-01T03:48:54;89006.06;;;7.43;63.61
22649;BME280;11491;41.942;24.220;2023-04-01T03:51:20;88998.44;;;7.42;64.06
22649;BME280;11491;41.942;24.220;2023-04-01T03:53:48;88999.38;;;7.49;64.40
22649;BME280;11491;41.942;24.220;2023-04-01T03:56:15;88999.84;;;7.36;63.96
22649;BME280;11491;41.942;24.220;2023-04-01T03:58:42;88990.56;;;7.29;64.55
22649;BME280;11491;41.942;24.220;2023-04-01T04:01:17;89006.91;;;7.47;62.37
22649;BME280;11491;41.942;24.220;2023-04-01T04:03:45;88999.22;;;7.77;60.10
22649;BME280;11491;41.942;24.220;2023-04-01T04:06:14;88988.81;;;8.27;57.64
22649;BME280;11491;41.942;24.220;2023-04-01T04:08:41;88985.03;;;8.67;56.15
22649;BME280;11491;41.942;24.220;2023-04-01T04:11:08;88976.28;;;8.90;55.58
22649;BME280;11491;41.942;24.220;2023-04-01T04:13:35;88985.66;;;9.03;55.62
22649;BME280;11491;41.942;24.220;2023-04-01T04:16:02;88967.22;;;9.17;54.20
22649;BME280;11491;41.942;24.220;2023-04-01T04:18:29;88981.59;;;9.36;55.27
22649;BME280;11491;41.942;24.220;2023-04-01T04:20:57;88987.16;;;9.50;56.27
22649;BME280;11491;41.942;24.220;2023-04-01T04:23:24;88987.88;;;9.47;56.68
22649;BME280;11491;41.942;24.220;2023-04-01T04:25:55;88986.13;;;9.32;54.93
22649;BME280;11491;41.942;24.220;2023-04-01T04:28:22;88975.66;;;9.46;52.50
22649;BME280;11491;41.942;24.220;2023-04-01T04:30:49;88975.16;;;9.63;51.81
22649;BME280;11491;41.942;24.220;2023-04-01T04:33:15;88965.41;;;9.75;51.76
22649;BME280;11491;41.942;24.220;2023-04-01T04:35:42;88975.34;;;9.78;51.77
22649;BME280;11491;41.942;24.220;2023-04-01T04:38:11;88972.38;;;9.83;50.82
22649;BME280;11491;41.942;24.220;2023-04-01T04:40:38;88980.06;;;9.88;50.84
22649;BME280;11491;41.942;24.220;2023-04-01T04:43:05;88972.34;;;10.09;50.09
22649;BME280;11491;41.942;24.220;2023-04-01T04:45:32;88975.81;;;10.13;49.77
22649;BME280;11491;41.942;24.220;2023-04-01T04:47:59;88968.94;;;10.12;49.66
22649;BME280;11491;41.942;24.220;2023-04-01T04:50:26;88965.94;;;10.18;49.02
22649;BME280;11491;41.942;24.220;2023-04-01T04:52:53;88973.66;;;10.23;49.48
22649;BME280;11491;41.942;24.220;2023-04-01T04:55:21;88964.53;;;10.24;48.45
22649;BME280;11491;41.942;24.220;2023-04-01T04:57:48;88966.44;;;10.27;48.80
22649;BME280;11491;41.942;24.220;2023-04-01T05:00:15;88961.59;;;10.32;48.48
22649;BME280;11491;41.942;24.220;2023-04-01T05:02:42;88961.66;;;10.40;48.21
22649;BME280;11491;41.942;24.220;2023-04-01T05:05:09;88954.41;;;10.40;48.10
22649;BME280;11491;41.942;24.220;2023-04-01T05:07:36;88946.38;;;10.37;48.41
22649;BME280;11491;41.942;24.220;2023-04-01T05:10:04;88934.19;;;10.39;48.14
22649;BME280;11491;41.942;24.220;2023-04-01T05:12:32;88927.28;;;10.38;48.46
22649;BME280;11491;41.942;24.220;2023-04-01T05:15:04;88928.75;;;10.32;48.61
22649;BME280;11491;41.942;24.220;2023-04-01T05:17:31;88937.19;;;10.34;49.15
22649;BME280;11491;41.942;24.220;2023-04-01T05:19:58;88936.38;;;10.30;49.23
22649;BME280;11491;41.942;24.220;2023-04-01T05:22:25;88946.53;;;10.21;50.04
22649;BME280;11491;41.942;24.220;2023-04-01T05:24:52;88954.31;;;10.03;51.06
22649;BME280;11491;41.942;24.220;2023-04-01T05:27:19;88953.56;;;10.02;50.51
22649;BME280;11491;41.942;24.220;2023-04-01T05:29:47;88960.41;;;10.00;51.25
22649;BME280;11491;41.942;24.220;2023-04-01T05:32:14;88940.63;;;10.04;50.92
22649;BME280;11491;41.942;24.220;2023-04-01T05:34:41;88942.25;;;10.12;50.41
22649;BME280;11491;41.942;24.220;2023-04-01T05:37:08;88951.50;;;10.22;50.17
22649;BME280;11491;41.942;24.220;2023-04-01T05:39:36;88943.97;;;10.28;50.06
22649;BME280;11491;41.942;24.220;2023-04-01T05:42:03;88940.97;;;10.33;50.01
22649;BME280;11491;41.942;24.220;2023-04-01T05:44:31;88919.59;;;10.33;49.66
22649;BME280;11491;41.942;24.220;2023-04-01T05:46:59;88916.69;;;10.45;50.22
22649;BME280;11491;41.942;24.220;2023-04-01T05:49:26;88911.34;;;10.45;49.59
22649;BME280;11491;41.942;24.220;2023-04-01T05:51:53;88911.41;;;10.52;49.70
22649;BME280;11491;41.942;24.220;2023-04-01T05:54:20;88902.28;;;10.53;49.25
22649;BME280;11491;41.942;24.220;2023-04-01T05:56:47;88888.69;;;10.69;48.72
22649;BME280;11491;41.942;24.220;2023-04-01T05:59:13;88882.69;;;10.83;47.07
22649;BME280;11491;41.942;24.220;2023-04-01T06:01:40;88865.97;;;10.93;46.78
22649;BME280;11491;41.942;24.220;2023-04-01T06:04:12;88853.84;;;11.07;45.93
22649;BME280;11491;41.942;24.220;2023-04-01T06:06:40;88844.00;;;11.18;45.79
22649;BME280;11491;41.942;24.220;2023-04-01T06:09:12;88838.72;;;11.29;45.61
22649;BME280;11491;41.942;24.220;2023-04-01T06:11:49;88827.22;;;11.25;45.24
22649;BME280;11491;41.942;24.220;2023-04-01T06:14:27;88831.03;;;11.27;45.03
22649;BME280;11491;41.942;24.220;2023-04-01T06:17:05;88829.56;;;11.33;44.63
22649;BME280;11491;41.942;24.220;2023-04-01T06:19:41;88827.25;;;11.32;44.53
22649;BME280;11491;41.942;24.220;2023-04-01T06:25:22;88847.13;;;11.31;45.23
22649;BME280;11491;41.942;24.220;2023-04-01T06:28:02;88836.03;;;11.29;45.52
22649;BME280;11491;41.942;24.220;2023-04-01T06:30:40;88837.16;;;11.28;45.75
22649;BME280;11491;41.942;24.220;2023-04-01T06:33:29;88845.97;;;11.28;45.27
22649;BME280;11491;41.942;24.220;2023-04-01T06:36:14;88843.25;;;11.25;45.88
22649;BME280;11491;41.942;24.220;2023-04-01T06:39:02;88841.75;;;11.27;45.92
22649;BME280;11491;41.942;24.220;2023-04-01T06:42:02;88835.66;;;11.30;45.85
22649;BME280;11491;41.942;24.220;2023-04-01T06:44:40;88823.53;;;11.47;45.93
22649;BME280;11491;41.942;24.220;2023-04-01T06:47:22;88815.97;;;11.67;45.15
22649;BME280;11491;41.942;24.220;2023-04-01T06:49:57;88819.13;;;11.83;45.82
22649;BME280;11491;41.942;24.220;2023-04-01T06:52:38;88810.78;;;11.96;44.95
22649;BME280;11491;41.942;24.220;2023-04-01T06:55:21;88825.31;;;12.02;44.91
22649;BME280;11491;41.942;24.220;2023-04-01T06:57:53;88820.38;;;12.00;44.69
22649;BME280;11491;41.942;24.220;2023-04-01T07:00:27;88825.38;;;12.16;43.82
22649;BME280;11491;41.942;24.220;2023-04-01T07:03:02;88830.03;;;12.34;44.99
22649;BME280;11491;41.942;24.220;2023-04-01T07:05:33;88813.22;;;12.51;45.57
22649;BME280;11491;41.942;24.220;2023-04-01T07:08:04;88809.41;;;12.81;45.49
22649;BME280;11491;41.942;24.220;2023-04-01T07:10:41;88804.03;;;13.17;43.40
22649;BME280;11491;41.942;24.220;2023-04-01T07:13:14;88802.13;;;13.28;42.88
22649;BME280;11491;41.942;24.220;2023-04-01T07:15:54;88799.78;;;13.58;41.28
22649;BME280;11491;41.942;24.220;2023-04-01T07:18:29;88798.44;;;14.10;40.37
22649;BME280;11491;41.942;24.220;2023-04-01T07:20:57;88793.31;;;14.40;39.58
22649;BME280;11491;41.942;24.220;2023-04-01T07:23:29;88792.00;;;14.74;39.59
22649;BME280;11491;41.942;24.220;2023-04-01T07:26:00;88794.63;;;15.29;38.96
22649;BME280;11491;41.942;24.220;2023-04-01T07:28:30;88790.13;;;15.57;37.62
22649;BME280;11491;41.942;24.220;2023-04-01T07:31:07;88787.50;;;15.54;37.25
22649;BME280;11491;41.942;24.220;2023-04-01T07:33:40;88796.78;;;15.49;37.23
22649;BME280;11491;41.942;24.220;2023-04-01T07:36:14;88793.13;;;15.28;36.99
22649;BME280;11491;41.942;24.220;2023-04-01T07:38:55;88773.94;;;15.19;37.86
22649;BME280;11491;41.942;24.220;2023-04-01T07:41:32;88784.78;;;15.12;37.50
22649;BME280;11491;41.942;24.220;2023-04-01T07:44:10;88781.47;;;15.39;37.95
22649;BME280;11491;41.942;24.220;2023-04-01T07:46:52;88776.84;;;15.43;37.06
22649;BME280;11491;41.942;24.220;2023-04-01T07:49:23;88791.44;;;15.42;37.13
22649;BME280;11491;41.942;24.220;2023-04-01T07:51:59;88779.44;;;15.50;38.02
22649;BME280;11491;41.942;24.220;2023-04-01T07:54:33;88768.34;;;15.44;38.55
22649;BME280;11491;41.942;24.220;2023-04-01T07:57:05;88761.59;;;15.25;37.29
22649;BME280;11491;41.942;24.220;2023-04-01T07:59:40;88758.31;;;15.45;37.14
22649;BME280;11491;41.942;24.220;2023-04-01T08:02:20;88762.00;;;15.65;37.42
22649;BME280;11491;41.942;24.220;2023-04-01T08:04:58;88760.97;;;15.90;37.03
22649;BME280;11491;41.942;24.220;2023-04-01T08:07:31;88764.19;;;15.78;35.97
22649;BME280;11491;41.942;24.220;2023-04-01T08:10:11;88767.41;;;15.62;36.14
22649;BME280;11491;41.942;24.220;2023-04-01T08:12:47;88751.13;;;15.35;36.75
22649;BME280;11491;41.942;24.220;2023-04-01T08:15:19;88754.75;;;15.55;36.93
22649;BME280;11491;41.942;24.220;2023-04-01T08:17:58;88756.59;;;15.65;36.42
22649;BME280;11491;41.942;24.220;2023-04-01T08:20:32;88755.28;;;15.43;36.72
22649;BME280;11491;41.942;24.220;2023-04-01T08:23:07;88752.38;;;15.64;36.60
22649;BME280;11491;41.942;24.220;2023-04-01T08:25:42;88745.97;;;15.51;36.63
22649;BME280;11491;41.942;24.220;2023-04-01T08:28:16;88737.38;;;15.63;37.30
22649;BME280;11491;41.942;24.220;2023-04-01T08:30:47;88732.56;;;15.82;36.29
22649;BME280;11491;41.942;24.220;2023-04-01T08:33:21;88737.81;;;15.96;36.38
22649;BME280;11491;41.942;24.220;2023-04-01T08:35:52;88712.56;;;15.83;36.53
22649;BME280;11491;41.942;24.220;2023-04-01T08:38:24;88705.72;;;15.75;36.07
22649;BME280;11491;41.942;24.220;2023-04-01T08:41:10;88708.13;;;15.65;36.72
22649;BME280;11491;41.942;24.220;2023-04-01T08:43:54;88706.34;;;15.86;37.08
22649;BME280;11491;41.942;24.220;2023-04-01T08:46:51;88692.50;;;15.84;37.07
22649;BME280;11491;41.942;24.220;2023-04-01T08:49:32;88701.13;;;16.02;36.73
22649;BME280;11491;41.942;24.220;2023-04-01T08:52:18;88703.94;;;15.95;37.18
22649;BME280;11491;41.942;24.220;2023-04-01T08:55:04;88703.56;;;15.93;37.30
22649;BME280;11491;41.942;24.220;2023-04-01T08:57:46;88703.41;;;16.07;37.05
22649;BME280;11491;41.942;24.220;2023-04-01T09:00:25;88703.66;;;16.17;37.68
22649;BME280;11491;41.942;24.220;2023-04-01T09:06:21;88696.56;;;17.51;35.76
22649;BME280;11491;41.942;24.220;2023-04-01T09:12:02;88702.31;;;18.69;34.32
22649;BME280;11491;41.942;24.220;2023-04-01T09:14:52;88682.56;;;18.89;32.91
22649;BME280;11491;41.942;24.220;2023-04-01T09:20:32;88688.41;;;17.55;34.10
22649;BME280;11491;41.942;24.220;2023-04-01T09:23:21;88680.50;;;18.24;34.95
22649;BME280;11491;41.942;24.220;2023-04-01T09:26:04;88679.13;;;18.68;33.76
22649;BME280;11491;41.942;24.220;2023-04-01T09:28:42;88679.41;;;18.21;34.16
22649;BME280;11491;41.942;24.220;2023-04-01T09:31:32;88671.38;;;17.98;34.27
22649;BME280;11491;41.942;24.220;2023-04-01T09:37:19;88672.66;;;17.50;34.85
22649;BME280;11491;41.942;24.220;2023-04-01T09:42:49;88653.56;;;17.80;34.25
22649;BME280;11491;41.942;24.220;2023-04-01T09:45:35;88650.31;;;17.69;34.97
22649;BME280;11491;41.942;24.220;2023-04-01T09:48:14;88645.88;;;17.99;35.99
22649;BME280;11491;41.942;24.220;2023-04-01T09:50:51;88634.50;;;17.88;34.27
22649;BME280;11491;41.942;24.220;2023-04-01T09:53:28;88634.28;;;17.38;34.46
22649;BME280;11491;41.942;24.220;2023-04-01T09:56:23;88629.59;;;17.19;34.84
22649;BME280;11491;41.942;24.220;2023-04-01T09:59:24;88630.13;;;16.90;34.82
22649;BME280;11491;41.942;24.220;2023-04-01T10:02:34;88620.91;;;16.88;35.23
22649;BME280;11491;41.942;24.220;2023-04-01T10:18:05;88576.13;;;18.76;33.95
22649;BME280;11491;41.942;24.220;2023-04-01T10:20:54;88565.91;;;19.12;33.78
22649;BME280;11491;41.942;24.220;2023-04-01T10:54:06;88505.25;;;19.52;32.64
22649;BME280;11491;41.942;24.220;2023-04-01T10:56:46;88493.94;;;19.95;33.53
22649;BME280;11491;41.942;24.220;2023-04-01T11:02:52;88489.59;;;20.11;32.99
22649;BME280;11491;41.942;24.220;2023-04-01T11:15:01;88475.63;;;19.32;34.18
22649;BME280;11491;41.942;24.220;2023-04-01T11:17:48;88482.00;;;18.83;34.70
22649;BME280;11491;41.942;24.220;2023-04-01T11:20:45;88496.47;;;18.77;34.91
22649;BME280;11491;41.942;24.220;2023-04-01T11:23:32;88477.41;;;18.02;34.77
22649;BME280;11491;41.942;24.220;2023-04-01T11:26:14;88479.44;;;18.14;34.97
22649;BME280;11491;41.942;24.220;2023-04-01T11:29:09;88469.28;;;18.18;35.01
22649;BME280;11491;41.942;24.220;2023-04-01T11:31:53;88478.34;;;18.12;34.90
22649;BME280;11491;41.942;24.220;2023-04-01T11:37:29;88463.97;;;17.98;35.62
22649;BME280;11491;41.942;24.220;2023-04-01T11:40:07;88475.31;;;17.73;35.97
22649;BME280;11491;41.942;24.220;2023-04-01T11:42:44;88480.59;;;18.46;35.68
22649;BME280;11491;41.942;24.220;2023-04-01T11:45:22;88466.88;;;18.53;34.92
22649;BME280;11491;41.942;24.220;2023-04-01T11:48:03;88478.50;;;19.12;35.07
22649;BME280;11491;41.942;24.220;2023-04-01T11:50:46;88488.03;;;18.42;33.91
22649;BME280;11491;41.942;24.220;2023-04-01T11:53:23;88468.06;;;18.36;34.71
22649;BME280;11491;41.942;24.220;2023-04-01T11:55:59;88479.16;;;18.41;34.10
22649;BME280;11491;41.942;24.220;2023-04-01T11:58:41;88491.03;;;18.77;34.97
22649;BME280;11491;41.942;24.220;2023-04-01T12:01:22;88492.38;;;18.85;34.68
22649;BME280;11491;41.942;24.220;2023-04-01T12:07:14;88466.50;;;17.53;36.10
22649;BME280;11491;41.942;24.220;2023-04-01T12:09:52;88452.00;;;17.63;36.93
22649;BME280;11491;41.942;24.220;2023-04-01T12:12:27;88462.88;;;18.28;35.30
22649;BME280;11491;41.942;24.220;2023-04-01T12:15:10;88442.78;;;18.88;35.15
22649;BME280;11491;41.942;24.220;2023-04-01T12:17:48;88442.09;;;19.68;34.12
22649;BME280;11491;41.942;24.220;2023-04-01T12:20:33;88435.91;;;20.06;33.68
22649;BME280;11491;41.942;24.220;2023-04-01T12:23:12;88435.91;;;20.06;33.09
22649;BME280;11491;41.942;24.220;2023-04-01T12:25:58;88437.84;;;19.54;32.63
22649;BME280;11491;41.942;24.220;2023-04-01T12:28:36;88471.72;;;18.91;33.45
22649;BME280;11491;41.942;24.220;2023-04-01T12:31:20;88432.88;;;18.52;35.46
22649;BME280;11491;41.942;24.220;2023-04-01T12:34:03;88436.69;;;19.13;34.38
22649;BME280;11491;41.942;24.220;2023-04-01T12:36:40;88424.47;;;19.34;33.97
22649;BME280;11491;41.942;24.220;2023-04-01T12:39:38;88444.25;;;19.98;33.65
22649;BME280;11491;41.942;24.220;2023-04-01T12:42:18;88437.53;;;19.90;33.38
22649;BME280;11491;41.942;24.220;2023-04-01T12:45:00;88440.69;;;19.76;33.16
22649;BME280;11491;41.942;24.220;2023-04-01T12:47:47;88431.97;;;20.32;32.97
22649;BME280;11491;41.942;24.220;2023-04-01T12:50:42;88449.63;;;20.24;33.96
22649;BME280;11491;41.942;24.220;2023-04-01T12:53:27;88448.06;;;20.49;32.48
22649;BME280;11491;41.942;24.220;2023-04-01T12:55:59;88447.84;;;20.08;33.58
22649;BME280;11491;41.942;24.220;2023-04-01T13:01:44;88441.81;;;19.24;34.34
22649;BME280;11491;41.942;24.220;2023-04-01T13:07:28;88459.31;;;18.15;36.39
22649;BME280;11491;41.942;24.220;2023-04-01T13:10:07;88473.34;;;18.10;37.17
22649;BME280;11491;41.942;24.220;2023-04-01T13:13:00;88472.16;;;18.27;36.95
22649;BME280;11491;41.942;24.220;2023-04-01T13:15:37;88472.56;;;17.77;37.71
22649;BME280;11491;41.942;24.220;2023-04-01T13:18:17;88466.56;;;17.69;37.48
22649;BME280;11491;41.942;24.220;2023-04-01T13:20:55;88464.06;;;17.42;38.79
22649;BME280;11491;41.942;24.220;2023-04-01T13:23:37;88474.59;;;17.16;38.62
22649;BME280;11491;41.942;24.220;2023-04-01T13:26:13;88476.22;;;16.30;40.00
22649;BME280;11491;41.942;24.220;2023-04-01T13:28:47;88483.88;;;15.85;40.96
22649;BME280;11491;41.942;24.220;2023-04-01T13:31:34;88511.88;;;15.91;41.46
22649;BME280;11491;41.942;24.220;2023-04-01T13:34:13;88519.25;;;15.87;42.52
22649;BME280;11491;41.942;24.220;2023-04-01T13:36:54;88562.94;;;15.44;45.14
22649;BME280;11491;41.942;24.220;2023-04-01T13:39:40;88555.47;;;14.94;49.02
22649;BME280;11491;41.942;24.220;2023-04-01T13:42:18;88560.19;;;14.41;52.62
22649;BME280;11491;41.942;24.220;2023-04-01T13:44:47;88572.69;;;14.17;52.87
22649;BME280;11491;41.942;24.220;2023-04-01T13:50:45;88592.34;;;13.47;55.38
22649;BME280;11491;41.942;24.220;2023-04-01T13:53:34;88588.19;;;13.32;54.70
22649;BME280;11491;41.942;24.220;2023-04-01T13:56:20;88575.47;;;13.43;55.62
22649;BME280;11491;41.942;24.220;2023-04-01T13:59:02;88584.72;;;13.31;56.41
22649;BME280;11491;41.942;24.220;2023-04-01T14:01:37;88575.25;;;13.05;57.36
22649;BME280;11491;41.942;24.220;2023-04-01T14:04:42;88576.75;;;13.06;58.40
22649;BME280;11491;41.942;24.220;2023-04-01T14:07:19;88572.44;;;13.34;58.92
22649;BME280;11491;41.942;24.220;2023-04-01T14:10:02;88576.25;;;13.40;58.37
22649;BME280;11491;41.942;24.220;2023-04-01T14:12:39;88568.97;;;14.04;58.37
22649;BME280;11491;41.942;24.220;2023-04-01T14:15:34;88556.38;;;14.38;58.93
22649;BME280;11491;41.942;24.220;2023-04-01T14:21:13;88552.47;;;14.43;56.64
22649;BME280;11491;41.942;24.220;2023-04-01T14:30:05;88560.22;;;14.37;57.38
22649;BME280;11491;41.942;24.220;2023-04-01T14:32:46;88562.31;;;14.60;57.45
22649;BME280;11491;41.942;24.220;2023-04-01T14:35:31;88551.41;;;14.78;55.65
22649;BME280;11491;41.942;24.220;2023-04-01T14:38:19;88544.47;;;14.77;54.89
22649;BME280;11491;41.942;24.220;2023-04-01T14:40:56;88547.47;;;14.45;56.33
22649;BME280;11491;41.942;24.220;2023-04-01T14:43:42;88544.19;;;14.27;56.96
22649;BME280;11491;41.942;24.220;2023-04-01T14:49:20;88547.88;;;14.43;57.12
22649;BME280;11491;41.942;24.220;2023-04-01T14:51:49;88544.03;;;14.44;55.30
22649;BME280;11491;41.942;24.220;2023-04-01T14:54:21;88543.28;;;14.40;54.50
22649;BME280;11491;41.942;24.220;2023-04-01T14:57:04;88544.50;;;14.32;56.32
22649;BME280;11491;41.942;24.220;2023-04-01T14:59:32;88542.00;;;14.11;56.74
22649;BME280;11491;41.942;24.220;2023-04-01T15:02:08;88546.16;;;13.74;56.99
22649;BME280;11491;41.942;24.220;2023-04-01T15:04:53;88534.13;;;13.26;57.49
22649;BME280;11491;41.942;24.220;2023-04-01T15:08:01;88551.31;;;12.41;61.44
22649;BME280;11491;41.942;24.220;2023-04-01T15:10:44;88556.72;;;12.23;62.16
22649;BME280;11491;41.942;24.220;2023-04-01T15:13:24;88553.59;;;12.39;61.66
22649;BME280;11491;41.942;24.220;2023-04-01T15:16:04;88549.78;;;12.36;61.84
22649;BME280;11491;41.942;24.220;2023-04-01T15:18:41;88557.44;;;12.38;61.56